sensor_id;sensor_type;location;lat;lon;timestamp;pressure;altitude;pressure_sealevel;temperature;humidity
16331;BME280;8275;48.206;16.340;2024-03-25T00:02:18;98206.94;;;11.07;45.02
16331;BME280;8275;48.206;16.340;2024-03-25T00:04:45;98210.72;;;11.11;44.83
16331;BME280;8275;48.206;16.340;2024-03-25T00:07:12;98208.22;;;11.14;45.01
16331;BME280;8275;48.206;16.340;2024-03-25T00:09:39;98203.56;;;11.15;44.41
16331;BME280;8275;48.206;16.340;2024-03-25T00:12:07;98218.91;;;11.16;44.59
16331;BME280;8275;48.206;16.340;2024-03-25T00:14:35;98200.00;;;11.14;44.64
16331;BME280;8275;48.206;16.340;2024-03-25T00:17:02;98198.38;;;11.13;44.19
16331;BME280;8275;48.206;16.340;2024-03-25T00:19:29;98207.69;;;11.12;44.25
16331;BME280;8275;48.206;16.340;2024-03-25T00:21:57;98197.03;;;11.11;44.23
16331;BME280;8275;48.206;16.340;2024-03-25T00:24:24;98204.72;;;11.09;44.37
16331;BME280;8275;48.206;16.340;2024-03-25T00:26:51;98194.03;;;11.07;44.41
16331;BME280;8275;48.206;16.340;2024-03-25T00:29:19;98188.84;;;11.06;44.46
16331;BME280;8275;48.206;16.340;2024-03-25T00:31:46;98185.28;;;11.05;44.46
16331;BME280;8275;48.206;16.340;2024-03-25T00:34:13;98179.56;;;11.02;44.20
16331;BME280;8275;48.206;16.340;2024-03-25T00:36:39;98193.25;;;11.02;44.21
16331;BME280;8275;48.206;16.340;2024-03-25T00:39:07;98185.34;;;11.00;44.37
16331;BME280;8275;48.206;16.340;2024-03-25T00:41:34;98186.13;;;11.01;44.18
16331;BME280;8275;48.206;16.340;2024-03-25T00:44:01;98183.69;;;10.99;44.23
16331;BME280;8275;48.206;16.340;2024-03-25T00:46:29;98190.00;;;11.00;44.68
16331;BME280;8275;48.206;16.340;2024-03-25T00:48:56;98186.13;;;11.01;44.46
16331;BME280;8275;48.206;16.340;2024-03-25T00:51:23;98198.44;;;11.03;44.31
16331;BME280;8275;48.206;16.340;2024-03-25T00:53:50;98181.75;;;11.05;44.88
16331;BME280;8275;48.206;16.340;2024-03-25T00:56:16;98194.03;;;11.07;44.24
16331;BME280;8275;48.206;16.340;2024-03-25T00:58:44;98185.81;;;11.07;44.07
16331;BME280;8275;48.206;16.340;2024-03-25T01:01:12;98186.63;;;11.08;44.20
16331;BME280;8275;48.206;16.340;2024-03-25T01:03:41;98191.03;;;11.09;44.28
16331;BME280;8275;48.206;16.340;2024-03-25T01:06:07;98198.41;;;11.08;44.48
16331;BME280;8275;48.206;16.340;2024-03-25T01:08:35;98190.19;;;11.08;44.17
16331;BME280;8275;48.206;16.340;2024-03-25T01:11:01;98193.47;;;11.10;44.61
16331;BME280;8275;48.206;16.340;2024-03-25T01:13:29;98186.59;;;11.13;44.57
16331;BME280;8275;48.206;16.340;2024-03-25T01:15:55;98184.13;;;11.16;44.56
16331;BME280;8275;48.206;16.340;2024-03-25T01:18:23;98177.78;;;11.21;44.58
16331;BME280;8275;48.206;16.340;2024-03-25T01:20:51;98176.09;;;11.25;44.39
16331;BME280;8275;48.206;16.340;2024-03-25T01:23:18;98177.13;;;11.29;44.26
16331;BME280;8275;48.206;16.340;2024-03-25T01:25:45;98169.44;;;11.31;44.20
16331;BME280;8275;48.206;16.340;2024-03-25T01:28:13;98170.78;;;11.34;44.26
16331;BME280;8275;48.206;16.340;2024-03-25T01:30:39;98171.31;;;11.36;44.15
16331;BME280;8275;48.206;16.340;2024-03-25T01:33:07;98167.19;;;11.38;44.02
16331;BME280;8275;48.206;16.340;2024-03-25T01:35:33;98183.06;;;11.41;44.28
16331;BME280;8275;48.206;16.340;2024-03-25T01:38:03;98180.34;;;11.41;44.11
16331;BME280;8275;48.206;16.340;2024-03-25T01:40:29;98180.03;;;11.43;44.33
16331;BME280;8275;48.206;16.340;2024-03-25T01:42:57;98167.97;;;11.44;44.00
16331;BME280;8275;48.206;16.340;2024-03-25T01:45:24;98170.72;;;11.44;43.94
16331;BME280;8275;48.206;16.340;2024-03-25T01:47:52;98167.16;;;11.43;43.87
16331;BME280;8275;48.206;16.340;2024-03-25T01:50:19;98182.78;;;11.43;43.98
16331;BME280;8275;48.206;16.340;2024-03-25T01:52:46;98177.06;;;11.39;43.76
16331;BME280;8275;48.206;16.340;2024-03-25T01:55:18;98179.84;;;11.34;43.98
16331;BME280;8275;48.206;16.340;2024-03-25T01:57:47;98180.41;;;11.31;43.96
16331;BME280;8275;48.206;16.340;2024-03-25T02:00:15;98182.91;;;11.27;43.71
16331;BME280;8275;48.206;16.340;2024-03-25T02:02:44;98176.91;;;11.25;43.63
16331;BME280;8275;48.206;16.340;2024-03-25T02:05:12;98181.03;;;11.23;44.06
16331;BME280;8275;48.206;16.340;2024-03-25T02:07:41;98165.16;;;11.20;44.16
16331;BME280;8275;48.206;16.340;2024-03-25T02:10:08;98172.84;;;11.18;43.66
16331;BME280;8275;48.206;16.340;2024-03-25T02:12:38;98184.38;;;11.15;43.99
16331;BME280;8275;48.206;16.340;2024-03-25T02:15:06;98176.75;;;11.12;44.19
16331;BME280;8275;48.206;16.340;2024-03-25T02:17:34;98169.09;;;11.09;43.70
16331;BME280;8275;48.206;16.340;2024-03-25T02:20:00;98174.59;;;11.04;43.97
16331;BME280;8275;48.206;16.340;2024-03-25T02:22:29;98174.59;;;11.04;43.83
16331;BME280;8275;48.206;16.340;2024-03-25T02:24:57;98170.50;;;11.01;44.18
16331;BME280;8275;48.206;16.340;2024-03-25T02:27:27;98169.16;;;10.99;43.88
16331;BME280;8275;48.206;16.340;2024-03-25T02:29:54;98167.53;;;10.98;44.34
16331;BME280;8275;48.206;16.340;2024-03-25T02:32:22;98171.38;;;10.97;43.93
16331;BME280;8275;48.206;16.340;2024-03-25T02:34:52;98171.94;;;10.94;44.28
16331;BME280;8275;48.206;16.340;2024-03-25T02:37:19;98170.56;;;10.91;43.94
16331;BME280;8275;48.206;16.340;2024-03-25T02:39:46;98167.31;;;10.89;44.46
16331;BME280;8275;48.206;16.340;2024-03-25T02:42:13;98161.31;;;10.87;44.24
16331;BME280;8275;48.206;16.340;2024-03-25T02:44:41;98161.88;;;10.84;44.13
16331;BME280;8275;48.206;16.340;2024-03-25T02:47:10;98162.44;;;10.81;44.33
16331;BME280;8275;48.206;16.340;2024-03-25T02:49:37;98169.31;;;10.79;44.14
16331;BME280;8275;48.206;16.340;2024-03-25T02:52:06;98168.78;;;10.77;44.33
16331;BME280;8275;48.206;16.340;2024-03-25T02:54:32;98167.44;;;10.74;44.81
16331;BME280;8275;48.206;16.340;2024-03-25T02:56:59;98169.63;;;10.72;44.27
16331;BME280;8275;48.206;16.340;2024-03-25T02:59:26;98177.59;;;10.69;44.56
16331;BME280;8275;48.206;16.340;2024-03-25T03:01:54;98171.56;;;10.67;44.66
16331;BME280;8275;48.206;16.340;2024-03-25T03:04:21;98182.28;;;10.63;44.70
16331;BME280;8275;48.206;16.340;2024-03-25T03:06:48;98180.66;;;10.62;44.48
16331;BME280;8275;48.206;16.340;2024-03-25T03:09:15;98178.19;;;10.61;44.61
16331;BME280;8275;48.206;16.340;2024-03-25T03:11:42;98183.16;;;10.58;44.68
16331;BME280;8275;48.206;16.340;2024-03-25T03:14:09;98188.09;;;10.56;44.95
16331;BME280;8275;48.206;16.340;2024-03-25T03:16:37;98193.81;;;10.55;44.88
16331;BME280;8275;48.206;16.340;2024-03-25T03:19:05;98181.50;;;10.52;45.34
16331;BME280;8275;48.206;16.340;2024-03-25T03:21:32;98183.47;;;10.52;45.26
16331;BME280;8275;48.206;16.340;2024-03-25T03:23:58;98199.06;;;10.51;45.14
16331;BME280;8275;48.206;16.340;2024-03-25T03:26:26;98193.84;;;10.50;45.23
16331;BME280;8275;48.206;16.340;2024-03-25T03:28:53;98188.66;;;10.48;45.26
16331;BME280;8275;48.206;16.340;2024-03-25T03:31:21;98200.44;;;10.49;45.34
16331;BME280;8275;48.206;16.340;2024-03-25T03:33:47;98191.41;;;10.48;45.21
16331;BME280;8275;48.206;16.340;2024-03-25T03:36:19;98197.16;;;10.47;45.48
16331;BME280;8275;48.206;16.340;2024-03-25T03:38:46;98187.03;;;10.47;45.38
16331;BME280;8275;48.206;16.340;2024-03-25T03:41:13;98195.25;;;10.47;45.16
16331;BME280;8275;48.206;16.340;2024-03-25T03:43:39;98189.78;;;10.47;45.11
16331;BME280;8275;48.206;16.340;2024-03-25T03:46:07;98202.66;;;10.47;45.21
16331;BME280;8275;48.206;16.340;2024-03-25T03:48:33;98205.09;;;10.48;45.32
16331;BME280;8275;48.206;16.340;2024-03-25T03:51:01;98207.81;;;10.48;45.48
16331;BME280;8275;48.206;16.340;2024-03-25T03:53:29;98205.09;;;10.48;45.51
16331;BME280;8275;48.206;16.340;2024-03-25T03:55:59;98199.63;;;10.48;45.56
16331;BME280;8275;48.206;16.340;2024-03-25T03:58:25;98200.44;;;10.49;45.27
16331;BME280;8275;48.206;16.340;2024-03-25T04:00:53;98209.47;;;10.49;45.21
16331;BME280;8275;48.206;16.340;2024-03-25T04:03:19;98195.78;;;10.49;45.28
16331;BME280;8275;48.206;16.340;2024-03-25T04:05:47;98211.38;;;10.49;44.95
16331;BME280;8275;48.206;16.340;2024-03-25T04:08:13;98209.47;;;10.49;44.96
16331;BME280;8275;48.206;16.340;2024-03-25T04:10:43;98209.75;;;10.48;44.87
16331;BME280;8275;48.206;16.340;2024-03-25T04:13:10;98208.66;;;10.49;45.18
16331;BME280;8275;48.206;16.340;2024-03-25T04:15:39;98211.38;;;10.49;44.92
16331;BME280;8275;48.206;16.340;2024-03-25T04:18:07;98213.00;;;10.50;44.87
16331;BME280;8275;48.206;16.340;2024-03-25T04:20:39;98222.88;;;10.51;45.00
16331;BME280;8275;48.206;16.340;2024-03-25T04:23:06;98212.47;;;10.53;44.83
16331;BME280;8275;48.206;16.340;2024-03-25T04:25:34;98232.16;;;10.55;45.23
16331;BME280;8275;48.206;16.340;2024-03-25T04:28:06;98235.44;;;10.57;45.07
16331;BME280;8275;48.206;16.340;2024-03-25T04:30:33;98234.34;;;10.58;44.95
16331;BME280;8275;48.206;16.340;2024-03-25T04:33:00;98230.22;;;10.61;45.05
16331;BME280;8275;48.206;16.340;2024-03-25T04:35:27;98223.63;;;10.62;44.73
16331;BME280;8275;48.206;16.340;2024-03-25T04:37:54;98224.19;;;10.64;44.71
16331;BME280;8275;48.206;16.340;2024-03-25T04:40:20;98225.81;;;10.65;45.13
16331;BME280;8275;48.206;16.340;2024-03-25T04:42:47;98223.63;;;10.67;44.87
16331;BME280;8275;48.206;16.340;2024-03-25T04:45:15;98215.41;;;10.67;45.00
16331;BME280;8275;48.206;16.340;2024-03-25T04:47:42;98212.41;;;10.68;44.89
16331;BME280;8275;48.206;16.340;2024-03-25T04:50:09;98215.94;;;10.69;45.04
16331;BME280;8275;48.206;16.340;2024-03-25T04:52:36;98219.19;;;10.71;44.81
16331;BME280;8275;48.206;16.340;2024-03-25T04:55:03;98210.72;;;10.72;45.11
16331;BME280;8275;48.206;16.340;2024-03-25T04:57:29;98218.66;;;10.74;44.68
16331;BME280;8275;48.206;16.340;2024-03-25T04:59:56;98224.94;;;10.74;44.68
16331;BME280;8275;48.206;16.340;2024-03-25T05:02:23;98223.81;;;10.75;45.06
16331;BME280;8275;48.206;16.340;2024-03-25T05:04:50;98228.75;;;10.78;45.01
16331;BME280;8275;48.206;16.340;2024-03-25T05:07:16;98233.97;;;10.80;44.67
16331;BME280;8275;48.206;16.340;2024-03-25T05:09:43;98235.28;;;10.82;45.18
16331;BME280;8275;48.206;16.340;2024-03-25T05:12:09;98233.66;;;10.86;44.95
16331;BME280;8275;48.206;16.340;2024-03-25T05:14:36;98238.28;;;10.91;44.94
16331;BME280;8275;48.206;16.340;2024-03-25T05:17:03;98237.97;;;10.97;45.29
16331;BME280;8275;48.206;16.340;2024-03-25T05:19:31;98239.03;;;11.01;44.96
16331;BME280;8275;48.206;16.340;2024-03-25T05:21:57;98238.16;;;11.06;45.17
16331;BME280;8275;48.206;16.340;2024-03-25T05:24:24;98241.97;;;11.10;44.71
16331;BME280;8275;48.206;16.340;2024-03-25T05:26:50;98236.75;;;11.13;44.94
16331;BME280;8275;48.206;16.340;2024-03-25T05:29:16;98235.91;;;11.18;45.00
16331;BME280;8275;48.206;16.340;2024-03-25T05:31:58;98228.44;;;11.23;44.93
16331;BME280;8275;48.206;16.340;2024-03-25T05:34:25;98241.56;;;11.32;44.69
16331;BME280;8275;48.206;16.340;2024-03-25T05:36:53;98254.09;;;11.38;44.61
16331;BME280;8275;48.206;16.340;2024-03-25T05:39:20;98254.06;;;11.43;44.44
16331;BME280;8275;48.206;16.340;2024-03-25T05:41:47;98243.59;;;11.50;44.32
16331;BME280;8275;48.206;16.340;2024-03-25T05:44:14;98256.97;;;11.56;43.76
16331;BME280;8275;48.206;16.340;2024-03-25T05:46:40;98247.31;;;11.64;43.71
16331;BME280;8275;48.206;16.340;2024-03-25T05:49:07;98252.19;;;11.72;43.71
16331;BME280;8275;48.206;16.340;2024-03-25T05:51:34;98260.91;;;11.79;43.56
16331;BME280;8275;48.206;16.340;2024-03-25T05:54:02;98242.78;;;11.83;43.71
16331;BME280;8275;48.206;16.340;2024-03-25T05:56:28;98255.88;;;11.91;43.38
16331;BME280;8275;48.206;16.340;2024-03-25T05:58:56;98253.66;;;11.93;43.41
16331;BME280;8275;48.206;16.340;2024-03-25T06:01:23;98263.53;;;11.94;42.96
16331;BME280;8275;48.206;16.340;2024-03-25T06:03:49;98258.03;;;11.94;42.81
16331;BME280;8275;48.206;16.340;2024-03-25T06:06:16;98265.75;;;11.92;43.03
16331;BME280;8275;48.206;16.340;2024-03-25T06:08:42;98260.25;;;11.92;42.73
16331;BME280;8275;48.206;16.340;2024-03-25T06:11:10;98260.25;;;11.92;43.01
16331;BME280;8275;48.206;16.340;2024-03-25T06:13:37;98260.25;;;11.92;42.81
16331;BME280;8275;48.206;16.340;2024-03-25T06:16:04;98260.25;;;11.92;43.06
16331;BME280;8275;48.206;16.340;2024-03-25T06:18:31;98272.84;;;11.93;43.02
16331;BME280;8275;48.206;16.340;2024-03-25T06:20:57;98269.31;;;11.92;42.78
16331;BME280;8275;48.206;16.340;2024-03-25T06:23:25;98276.69;;;11.97;43.00
16331;BME280;8275;48.206;16.340;2024-03-25T06:25:53;98282.94;;;12.03;43.11
16331;BME280;8275;48.206;16.340;2024-03-25T06:28:22;98273.56;;;12.09;42.78
16331;BME280;8275;48.206;16.340;2024-03-25T06:30:49;98287.72;;;12.16;42.67
16331;BME280;8275;48.206;16.340;2024-03-25T06:33:36;98279.44;;;12.21;42.57
16331;BME280;8275;48.206;16.340;2024-03-25T06:36:21;98275.25;;;12.28;42.65
16331;BME280;8275;48.206;16.340;2024-03-25T06:38:48;98289.16;;;12.37;42.49
16331;BME280;8275;48.206;16.340;2024-03-25T06:41:14;98295.13;;;12.44;42.17
16331;BME280;8275;48.206;16.340;2024-03-25T06:43:42;98295.84;;;12.54;42.11
16331;BME280;8275;48.206;16.340;2024-03-25T06:46:09;98282.25;;;12.63;41.66
16331;BME280;8275;48.206;16.340;2024-03-25T06:48:35;98292.06;;;12.69;41.82
16331;BME280;8275;48.206;16.340;2024-03-25T06:51:02;98298.31;;;12.75;41.60
16331;BME280;8275;48.206;16.340;2024-03-25T06:53:29;98298.53;;;12.78;41.46
16331;BME280;8275;48.206;16.340;2024-03-25T06:55:58;98294.19;;;12.77;41.53
16331;BME280;8275;48.206;16.340;2024-03-25T06:58:25;98301.03;;;12.80;41.33
16331;BME280;8275;48.206;16.340;2024-03-25T07:00:54;98311.72;;;12.81;41.44
16331;BME280;8275;48.206;16.340;2024-03-25T07:03:23;98314.69;;;12.85;41.44
16331;BME280;8275;48.206;16.340;2024-03-25T07:05:51;98324.25;;;12.87;41.18
16331;BME280;8275;48.206;16.340;2024-03-25T07:08:18;98321.75;;;12.91;41.16
16331;BME280;8275;48.206;16.340;2024-03-25T07:10:45;98313.22;;;12.92;41.21
16331;BME280;8275;48.206;16.340;2024-03-25T07:13:12;98321.19;;;12.94;40.91
16331;BME280;8275;48.206;16.340;2024-03-25T07:15:39;98318.13;;;12.95;41.00
16331;BME280;8275;48.206;16.340;2024-03-25T07:18:07;98324.16;;;12.97;40.65
16331;BME280;8275;48.206;16.340;2024-03-25T07:20:34;98321.63;;;13.01;40.45
16331;BME280;8275;48.206;16.340;2024-03-25T07:23:00;98320.78;;;13.05;40.25
16331;BME280;8275;48.206;16.340;2024-03-25T07:25:27;98323.75;;;13.09;40.39
16331;BME280;8275;48.206;16.340;2024-03-25T07:27:53;98322.56;;;13.15;39.97
16331;BME280;8275;48.206;16.340;2024-03-25T07:30:20;98315.97;;;13.16;39.59
16331;BME280;8275;48.206;16.340;2024-03-25T07:32:47;98324.41;;;13.19;39.60
16331;BME280;8275;48.206;16.340;2024-03-25T07:35:15;98318.47;;;13.31;39.42
16331;BME280;8275;48.206;16.340;2024-03-25T07:37:42;98322.19;;;13.40;39.55
16331;BME280;8275;48.206;16.340;2024-03-25T07:40:09;98333.38;;;13.49;39.59
16331;BME280;8275;48.206;16.340;2024-03-25T07:42:36;98337.28;;;13.61;39.22
16331;BME280;8275;48.206;16.340;2024-03-25T07:45:03;98338.75;;;13.72;39.13
16331;BME280;8275;48.206;16.340;2024-03-25T07:47:30;98339.81;;;13.76;38.29
16331;BME280;8275;48.206;16.340;2024-03-25T07:49:57;98343.91;;;13.79;38.61
16331;BME280;8275;48.206;16.340;2024-03-25T07:52:25;98346.34;;;13.80;38.34
16331;BME280;8275;48.206;16.340;2024-03-25T07:54:51;98342.47;;;13.81;38.53
16331;BME280;8275;48.206;16.340;2024-03-25T07:57:18;98347.31;;;13.89;38.67
16331;BME280;8275;48.206;16.340;2024-03-25T07:59:44;98341.66;;;13.99;38.68
16331;BME280;8275;48.206;16.340;2024-03-25T08:02:11;98347.88;;;14.05;37.77
16331;BME280;8275;48.206;16.340;2024-03-25T08:04:37;98347.34;;;14.03;37.12
16331;BME280;8275;48.206;16.340;2024-03-25T08:07:04;98344.09;;;14.01;37.38
16331;BME280;8275;48.206;16.340;2024-03-25T08:09:32;98349.00;;;14.04;37.43
16331;BME280;8275;48.206;16.340;2024-03-25T08:11:59;98346.38;;;14.13;37.00
16331;BME280;8275;48.206;16.340;2024-03-25T08:14:25;98347.63;;;14.20;37.15
16331;BME280;8275;48.206;16.340;2024-03-25T08:16:52;98336.72;;;14.29;36.42
16331;BME280;8275;48.206;16.340;2024-03-25T08:19:18;98356.47;;;14.36;35.19
16331;BME280;8275;48.206;16.340;2024-03-25T08:21:45;98353.91;;;14.39;36.28
16331;BME280;8275;48.206;16.340;2024-03-25T08:24:13;98355.66;;;14.49;36.36
16331;BME280;8275;48.206;16.340;2024-03-25T08:26:41;98355.69;;;14.62;35.71
16331;BME280;8275;48.206;16.340;2024-03-25T08:29:08;98365.09;;;14.75;36.01
16331;BME280;8275;48.206;16.340;2024-03-25T08:31:34;98359.91;;;14.87;35.82
16331;BME280;8275;48.206;16.340;2024-03-25T08:34:01;98361.63;;;14.97;35.84
16331;BME280;8275;48.206;16.340;2024-03-25T08:36:27;98370.19;;;15.09;35.21
16331;BME280;8275;48.206;16.340;2024-03-25T08:38:53;98356.91;;;15.11;34.42
16331;BME280;8275;48.206;16.340;2024-03-25T08:41:20;98373.97;;;15.13;34.29
16331;BME280;8275;48.206;16.340;2024-03-25T08:43:48;98382.66;;;15.20;34.25
16331;BME280;8275;48.206;16.340;2024-03-25T08:46:14;98379.28;;;15.23;33.89
16331;BME280;8275;48.206;16.340;2024-03-25T08:48:41;98388.97;;;15.34;34.20
16331;BME280;8275;48.206;16.340;2024-03-25T08:51:07;98381.72;;;15.38;33.86
16331;BME280;8275;48.206;16.340;2024-03-25T08:53:33;98383.03;;;15.40;33.29
16331;BME280;8275;48.206;16.340;2024-03-25T08:56:00;98388.06;;;15.38;32.99
16331;BME280;8275;48.206;16.340;2024-03-25T08:58:26;98390.81;;;15.38;32.95
16331;BME280;8275;48.206;16.340;2024-03-25T09:00:54;98390.00;;;15.38;33.17
16331;BME280;8275;48.206;16.340;2024-03-25T09:03:21;98402.34;;;15.40;32.44
16331;BME280;8275;48.206;16.340;2024-03-25T09:05:47;98403.44;;;15.44;32.15
16331;BME280;8275;48.206;16.340;2024-03-25T09:08:14;98401.06;;;15.52;32.33
16331;BME280;8275;48.206;16.340;2024-03-25T09:10:43;98396.13;;;15.62;33.06
16331;BME280;8275;48.206;16.340;2024-03-25T09:13:29;98399.34;;;15.78;33.34
16331;BME280;8275;48.206;16.340;2024-03-25T09:15:57;98400.91;;;15.84;32.63
16331;BME280;8275;48.206;16.340;2024-03-25T09:18:24;98399.97;;;15.88;32.73
16331;BME280;8275;48.206;16.340;2024-03-25T09:20:50;98399.81;;;15.93;33.09
16331;BME280;8275;48.206;16.340;2024-03-25T09:23:17;98404.59;;;16.01;32.92
16331;BME280;8275;48.206;16.340;2024-03-25T09:25:53;98400.34;;;15.95;31.79
16331;BME280;8275;48.206;16.340;2024-03-25T09:28:19;98395.66;;;15.82;31.04
16331;BME280;8275;48.206;16.340;2024-03-25T09:30:47;98392.31;;;15.72;31.45
16331;BME280;8275;48.206;16.340;2024-03-25T09:33:15;98399.28;;;15.69;31.33
16331;BME280;8275;48.206;16.340;2024-03-25T09:35:41;98399.28;;;15.69;31.59
16331;BME280;8275;48.206;16.340;2024-03-25T09:38:08;98391.50;;;15.71;31.79
16331;BME280;8275;48.206;16.340;2024-03-25T09:40:36;98386.69;;;15.77;31.90
16331;BME280;8275;48.206;16.340;2024-03-25T09:43:16;98392.41;;;15.80;32.22
16331;BME280;8275;48.206;16.340;2024-03-25T09:45:47;98380.91;;;15.87;32.23
16331;BME280;8275;48.206;16.340;2024-03-25T09:48:16;98378.53;;;15.94;32.20
16331;BME280;8275;48.206;16.340;2024-03-25T09:50:45;98403.09;;;15.95;31.12
16331;BME280;8275;48.206;16.340;2024-03-25T09:53:13;98387.25;;;15.87;31.02
16331;BME280;8275;48.206;16.340;2024-03-25T09:55:39;98403.44;;;15.80;31.11
16331;BME280;8275;48.206;16.340;2024-03-25T09:58:06;98391.06;;;15.78;31.69
16331;BME280;8275;48.206;16.340;2024-03-25T10:00:33;98380.22;;;15.81;31.99
16331;BME280;8275;48.206;16.340;2024-03-25T10:02:59;98371.00;;;15.86;31.60
16331;BME280;8275;48.206;16.340;2024-03-25T10:05:27;98382.69;;;15.83;30.92
16331;BME280;8275;48.206;16.340;2024-03-25T10:07:54;98373.88;;;15.81;31.24
16331;BME280;8275;48.206;16.340;2024-03-25T10:10:20;98377.25;;;15.78;30.87
16331;BME280;8275;48.206;16.340;2024-03-25T10:12:47;98372.88;;;15.77;30.75
16331;BME280;8275;48.206;16.340;2024-03-25T10:15:16;98372.25;;;15.80;31.10
16331;BME280;8275;48.206;16.340;2024-03-25T10:17:42;98380.91;;;15.87;31.21
16331;BME280;8275;48.206;16.340;2024-03-25T10:20:14;98367.81;;;15.92;30.56
16331;BME280;8275;48.206;16.340;2024-03-25T10:22:45;98373.78;;;16.08;30.22
16331;BME280;8275;48.206;16.340;2024-03-25T10:25:23;98371.50;;;16.10;30.96
16331;BME280;8275;48.206;16.340;2024-03-25T10:27:54;98371.78;;;16.22;31.13
16331;BME280;8275;48.206;16.340;2024-03-25T10:30:21;98366.00;;;16.32;30.65
16331;BME280;8275;48.206;16.340;2024-03-25T10:32:59;98360.03;;;16.39;30.25
16331;BME280;8275;48.206;16.340;2024-03-25T10:35:27;98368.47;;;16.42;28.60
16331;BME280;8275;48.206;16.340;2024-03-25T10:37:58;98362.78;;;16.39;28.31
16331;BME280;8275;48.206;16.340;2024-03-25T10:40:28;98359.94;;;16.30;28.54
16331;BME280;8275;48.206;16.340;2024-03-25T10:43:02;98371.81;;;16.31;29.21
16331;BME280;8275;48.206;16.340;2024-03-25T10:45:30;98354.84;;;16.46;29.38
16331;BME280;8275;48.206;16.340;2024-03-25T10:47:58;98363.66;;;16.78;29.58
16331;BME280;8275;48.206;16.340;2024-03-25T10:50:29;98363.28;;;17.11;28.48
16331;BME280;8275;48.206;16.340;2024-03-25T10:52:58;98353.44;;;17.35;27.57
16331;BME280;8275;48.206;16.340;2024-03-25T10:55:26;98356.31;;;17.61;27.58
16331;BME280;8275;48.206;16.340;2024-03-25T10:57:54;98354.19;;;17.92;27.76
16331;BME280;8275;48.206;16.340;2024-03-25T11:00:23;98346.47;;;18.23;27.17
16331;BME280;8275;48.206;16.340;2024-03-25T11:02:50;98340.41;;;18.56;27.22
16331;BME280;8275;48.206;16.340;2024-03-25T11:05:17;98340.97;;;18.87;26.62
16331;BME280;8275;48.206;16.340;2024-03-25T11:07:44;98332.19;;;19.14;27.18
16331;BME280;8275;48.206;16.340;2024-03-25T11:10:12;98335.34;;;19.63;27.71
16331;BME280;8275;48.206;16.340;2024-03-25T11:12:41;98328.66;;;20.17;25.91
16331;BME280;8275;48.206;16.340;2024-03-25T11:15:09;98315.81;;;20.45;23.79
16331;BME280;8275;48.206;16.340;2024-03-25T11:17:36;98328.81;;;20.53;23.94
16331;BME280;8275;48.206;16.340;2024-03-25T11:20:14;98318.50;;;20.54;24.38
16331;BME280;8275;48.206;16.340;2024-03-25T11:22:48;98317.50;;;20.82;25.24
16331;BME280;8275;48.206;16.340;2024-03-25T11:25:17;98303.84;;;21.26;25.93
16331;BME280;8275;48.206;16.340;2024-03-25T11:27:45;98312.72;;;21.67;25.36
16331;BME280;8275;48.206;16.340;2024-03-25T11:30:12;98304.16;;;22.12;25.28
16331;BME280;8275;48.206;16.340;2024-03-25T11:32:46;98294.28;;;22.74;25.21
16331;BME280;8275;48.206;16.340;2024-03-25T11:35:16;98297.41;;;23.35;23.73
16331;BME280;8275;48.206;16.340;2024-03-25T11:37:43;98302.59;;;23.87;21.68
16331;BME280;8275;48.206;16.340;2024-03-25T11:40:11;98297.22;;;23.97;19.99
16331;BME280;8275;48.206;16.340;2024-03-25T11:42:40;98291.97;;;23.77;19.67
16331;BME280;8275;48.206;16.340;2024-03-25T11:45:09;98295.59;;;23.42;19.82
16331;BME280;8275;48.206;16.340;2024-03-25T11:47:40;98296.78;;;23.10;20.01
16331;BME280;8275;48.206;16.340;2024-03-25T11:50:09;98288.16;;;22.68;19.78
16331;BME280;8275;48.206;16.340;2024-03-25T11:52:36;98294.72;;;22.17;20.39
16331;BME280;8275;48.206;16.340;2024-03-25T11:55:03;98307.94;;;21.80;21.06
16331;BME280;8275;48.206;16.340;2024-03-25T11:57:29;98311.75;;;21.48;21.39
16331;BME280;8275;48.206;16.340;2024-03-25T11:59:58;98290.63;;;21.11;21.90
16331;BME280;8275;48.206;16.340;2024-03-25T12:02:25;98306.84;;;20.84;23.04
16331;BME280;8275;48.206;16.340;2024-03-25T12:04:52;98321.66;;;20.64;22.92
16331;BME280;8275;48.206;16.340;2024-03-25T12:07:18;98308.09;;;20.63;22.75
16331;BME280;8275;48.206;16.340;2024-03-25T12:09:45;98314.47;;;20.75;23.14
16331;BME280;8275;48.206;16.340;2024-03-25T12:12:30;98304.16;;;20.64;22.84
16331;BME280;8275;48.206;16.340;2024-03-25T12:15:00;98326.44;;;20.31;22.58
16331;BME280;8275;48.206;16.340;2024-03-25T12:17:26;98325.13;;;19.96;22.99
16331;BME280;8275;48.206;16.340;2024-03-25T12:20:01;98319.69;;;19.58;22.87
16331;BME280;8275;48.206;16.340;2024-03-25T12:22:30;98317.31;;;19.69;23.50
16331;BME280;8275;48.206;16.340;2024-03-25T12:24:58;98301.53;;;20.35;23.72
16331;BME280;8275;48.206;16.340;2024-03-25T12:27:25;98288.09;;;21.18;23.38
16331;BME280;8275;48.206;16.340;2024-03-25T12:30:00;98285.44;;;21.73;23.40
16331;BME280;8275;48.206;16.340;2024-03-25T12:32:37;98281.41;;;21.98;23.03
16331;BME280;8275;48.206;16.340;2024-03-25T12:35:08;98291.75;;;21.98;19.90
16331;BME280;8275;48.206;16.340;2024-03-25T12:37:36;98293.13;;;21.64;20.48
16331;BME280;8275;48.206;16.340;2024-03-25T12:40:05;98292.72;;;21.26;20.37
16331;BME280;8275;48.206;16.340;2024-03-25T12:42:32;98292.34;;;20.91;20.46
16331;BME280;8275;48.206;16.340;2024-03-25T12:45:01;98292.53;;;20.62;21.34
16331;BME280;8275;48.206;16.340;2024-03-25T12:47:28;98291.41;;;20.63;21.70
16331;BME280;8275;48.206;16.340;2024-03-25T12:49:54;98288.03;;;20.69;21.79
16331;BME280;8275;48.206;16.340;2024-03-25T12:52:21;98292.66;;;20.65;22.16
16331;BME280;8275;48.206;16.340;2024-03-25T12:54:47;98299.16;;;20.57;22.54
16331;BME280;8275;48.206;16.340;2024-03-25T12:57:14;98293.81;;;20.52;22.87
16331;BME280;8275;48.206;16.340;2024-03-25T12:59:41;98281.38;;;20.50;23.09
16331;BME280;8275;48.206;16.340;2024-03-25T13:02:11;98285.63;;;20.92;22.69
16331;BME280;8275;48.206;16.340;2024-03-25T13:04:39;98277.28;;;21.28;22.49